Pen Mar, Pennsylvania
Current Conditions -  °F | °C
As of 11:53 AM on Friday 28 Nov 2014 (Local Time) from KRYT Reporting Station
Few Clouds Few Clouds  
Wind Chill: 23°   Ceiling: Unl
Heat Index: 31°   Visibility: 10mi
Dew Point: 14°   Wind: 8mph
Humidity: 50%   Direction: 260°W
Pressure: 30.24"   Gusts: NA
Location:  39.7777°N, 77.5693°W
Report Text: KRYT 281653Z AUTO 26007KT 230V310 10SM FEW043 M01/M10 A3024 RMK AO2 SLP254 T10061100 $
Loading
Personal Weather Stations






























Interactive Weather Map New forecast layout! Learn more

10-Day Weather Forecast

Advertisements
Track Severe Weather on mobile